Time;durP1;ratioP1;P1;durP2;ratioP2;P2;SDS_P1;SDS_P2;PMS_P1;PMS_P2;Temp;Humidity;BMP_temperature;BMP_pressure;BME280_temperature;BME280_humidity;BME280_pressure;Samples;Min_cycle;Max_cycle;Signal;HPM_P1;HPM_P2
2022/05/16 00:01:22;;;;;;;4.30;2.60;;;12.10;99.90;;;;;;5028058;28;20228;-87
2022/05/16 00:03:48;;;;;;;5.50;3.03;;;12.10;99.90;;;;;;5044380;28;20275;-88
2022/05/16 00:06:14;;;;;;;9.47;2.60;;;12.10;99.90;;;;;;5045385;28;20225;-89
2022/05/16 00:08:39;;;;;;;3.93;2.63;;;12.10;99.90;;;;;;5044097;28;20194;-87
2022/05/16 00:11:05;;;;;;;6.83;2.63;;;12.10;99.90;;;;;;5028724;28;20285;-87
2022/05/16 00:13:31;;;;;;;5.17;2.90;;;12.10;99.90;;;;;;5043973;28;20577;-88
2022/05/16 00:15:57;;;;;;;11.47;3.20;;;12.10;99.90;;;;;;5011502;28;20324;-88
2022/05/16 00:18:23;;;;;;;6.73;2.77;;;12.10;99.90;;;;;;5044209;28;20236;-88
2022/05/16 00:20:49;;;;;;;4.63;2.80;;;12.10;99.90;;;;;;5044083;28;20329;-87
2022/05/16 00:23:15;;;;;;;2.20;1.87;;;12.10;99.90;;;;;;5011989;28;20276;-90
2022/05/16 00:25:40;;;;;;;3.67;2.47;;;12.10;99.90;;;;;;5045502;28;20698;-88
2022/05/16 00:28:06;;;;;;;7.37;3.00;;;12.10;99.90;;;;;;5027762;28;20675;-88
2022/05/16 00:30:32;;;;;;;7.10;2.13;;;12.10;99.90;;;;;;5026365;28;20222;-88
2022/05/16 00:32:57;;;;;;;2.87;2.30;;;12.10;99.90;;;;;;5042138;28;20225;-88
2022/05/16 00:35:23;;;;;;;4.37;2.40;;;12.10;99.90;;;;;;5044280;28;20232;-88
2022/05/16 00:37:49;;;;;;;2.97;2.70;;;12.10;99.90;;;;;;5044403;28;20222;-88
2022/05/16 00:40:16;;;;;;;2.27;1.67;;;12.10;99.90;;;;;;5044077;28;20304;-88
2022/05/16 00:42:43;;;;;;;5.10;2.37;;;12.10;99.90;;;;;;5027989;28;20227;-87
2022/05/16 00:45:11;;;;;;;3.80;2.30;;;12.10;99.90;;;;;;5043464;28;20229;-89
2022/05/16 00:47:36;;;;;;;3.47;2.33;;;12.10;99.90;;;;;;5043966;28;20178;-88
2022/05/16 00:50:05;;;;;;;5.97;2.40;;;12.10;99.90;;;;;;5044629;28;20186;-88
2022/05/16 00:52:44;;;;;;;4.03;2.00;;;12.10;99.90;;;;;;5043482;28;20359;-87
2022/05/16 00:55:16;;;;;;;4.70;2.77;;;12.10;99.90;;;;;;5044522;28;20364;-87
2022/05/16 00:57:54;;;;;;;9.43;3.43;;;12.10;99.90;;;;;;5044310;28;20218;-88
2022/05/16 01:00:26;;;;;;;5.00;2.73;;;12.10;99.90;;;;;;5048007;28;20232;-89
2022/05/16 01:05:43;;;;;;;7.97;2.97;;;12.10;99.90;;;;;;5048912;28;20178;-89
2022/05/16 01:08:16;;;;;;;3.33;2.37;;;12.10;99.90;;;;;;5048886;28;20186;-88
2022/05/16 01:10:42;;;;;;;4.93;2.97;;;12.10;99.90;;;;;;5047791;28;20328;-89
2022/05/16 01:13:08;;;;;;;3.20;1.97;;;12.10;99.90;;;;;;5049277;28;20225;-88
2022/05/16 01:15:38;;;;;;;5.50;2.50;;;12.10;99.90;;;;;;5047266;28;20233;-88
2022/05/16 01:18:09;;;;;;;4.97;3.50;;;12.10;99.90;;;;;;5047022;28;20213;-88
2022/05/16 01:21:02;;;;;;;6.57;2.90;;;12.10;99.90;;;;;;5045856;28;20662;-87
2022/05/16 01:23:45;;;;;;;3.80;2.90;;;12.00;99.90;;;;;;5045500;28;20193;-89
2022/05/16 01:26:16;;;;;;;6.80;2.03;;;12.10;99.90;;;;;;5046194;28;20186;-87
2022/05/16 01:28:41;;;;;;;2.47;1.77;;;12.00;99.90;;;;;;5048751;28;20226;-87
2022/05/16 01:31:07;;;;;;;3.30;2.83;;;12.00;99.90;;;;;;5030869;28;20333;-88
2022/05/16 01:33:34;;;;;;;5.70;2.33;;;12.00;99.90;;;;;;5048296;28;20329;-89
2022/05/16 01:35:59;;;;;;;4.13;2.60;;;12.10;99.90;;;;;;5031005;28;20230;-88
2022/05/16 01:38:27;;;;;;;3.67;3.17;;;12.20;99.90;;;;;;5049184;28;20201;-88
2022/05/16 01:40:59;;;;;;;2.70;1.77;;;12.20;99.90;;;;;;5047500;28;20233;-88
2022/05/16 01:43:29;;;;;;;3.80;2.20;;;12.30;99.90;;;;;;5047960;28;20256;-88
2022/05/16 01:45:55;;;;;;;9.53;2.50;;;12.40;99.90;;;;;;5048505;28;20628;-88
2022/05/16 01:48:21;;;;;;;4.17;2.03;;;12.50;99.90;;;;;;5030558;28;20581;-88
2022/05/16 01:50:50;;;;;;;3.67;2.40;;;12.50;99.90;;;;;;5030823;28;20237;-87
2022/05/16 01:53:18;;;;;;;4.20;2.17;;;12.60;99.90;;;;;;5047842;28;20274;-88
2022/05/16 01:55:44;;;;;;;2.60;2.20;;;12.60;99.90;;;;;;5046546;28;20376;-88
2022/05/16 01:58:10;;;;;;;7.47;2.97;;;12.60;99.90;;;;;;5047062;28;20267;-87
2022/05/16 02:00:37;;;;;;;2.90;1.77;;;12.60;99.90;;;;;;5048460;28;20687;-88
2022/05/16 02:03:05;;;;;;;3.13;2.27;;;12.50;99.90;;;;;;5046508;28;20340;-89
2022/05/16 02:05:31;;;;;;;2.60;1.83;;;12.50;99.90;;;;;;5028743;28;20694;-89
2022/05/16 02:07:57;;;;;;;3.13;2.93;;;12.50;99.90;;;;;;5047323;28;20190;-88
2022/05/16 02:10:25;;;;;;;5.77;3.10;;;12.40;99.90;;;;;;5046059;28;20218;-89
2022/05/16 02:12:53;;;;;;;5.47;2.00;;;12.40;99.90;;;;;;5046668;28;20679;-88
2022/05/16 02:15:21;;;;;;;6.17;3.00;;;12.40;99.90;;;;;;5030291;28;20245;-88
2022/05/16 02:17:47;;;;;;;5.80;2.50;;;12.40;99.90;;;;;;5047564;28;20188;-87
2022/05/16 02:20:14;;;;;;;4.53;2.53;;;12.30;99.90;;;;;;5014016;28;20627;-87
2022/05/16 02:25:25;;;;;;;5.07;2.43;;;12.20;99.90;;;;;;5046397;28;20221;-87
2022/05/16 02:27:52;;;;;;;2.67;2.47;;;12.20;99.90;;;;;;5046459;28;20610;-88
2022/05/16 02:30:20;;;;;;;3.57;2.80;;;12.10;99.90;;;;;;5029810;28;20627;-89
2022/05/16 02:32:46;;;;;;;4.83;2.67;;;12.10;99.90;;;;;;5030261;28;20573;-88
2022/05/16 02:35:12;;;;;;;5.27;2.40;;;12.10;99.90;;;;;;5046901;28;20304;-88
2022/05/16 02:37:38;;;;;;;3.20;2.40;;;12.10;99.90;;;;;;5046350;28;20296;-88
2022/05/16 02:40:05;;;;;;;3.87;2.00;;;12.10;99.90;;;;;;5029871;28;20210;-87
2022/05/16 02:42:31;;;;;;;4.23;2.03;;;11.90;99.90;;;;;;5045112;28;20233;-87
2022/05/16 02:44:57;;;;;;;3.77;3.07;;;11.90;99.90;;;;;;5046152;28;20218;-89
2022/05/16 02:47:23;;;;;;;3.50;1.97;;;11.80;99.90;;;;;;5046890;28;20190;-87
2022/05/16 02:49:50;;;;;;;3.47;2.70;;;11.70;99.90;;;;;;5045969;28;20309;-87
2022/05/16 02:52:15;;;;;;;3.63;2.13;;;11.60;99.90;;;;;;5045667;28;20213;-87
2022/05/16 02:54:41;;;;;;;2.43;2.17;;;11.60;99.90;;;;;;5029218;28;20268;-88
2022/05/16 02:57:08;;;;;;;6.93;2.70;;;11.50;99.90;;;;;;5045571;28;20222;-87
2022/05/16 02:59:35;;;;;;;5.13;3.43;;;11.50;99.90;;;;;;5028921;28;20217;-87
2022/05/16 03:02:11;;;;;;;4.07;1.70;;;11.40;99.90;;;;;;5045785;28;20194;-88
2022/05/16 03:04:38;;;;;;;6.77;2.27;;;11.40;99.90;;;;;;5045160;28;20256;-88
2022/05/16 03:07:05;;;;;;;2.70;2.03;;;11.40;99.90;;;;;;5027282;28;20214;-89
2022/05/16 03:09:32;;;;;;;6.37;1.93;;;11.40;99.90;;;;;;5026842;28;20751;-89
2022/05/16 03:11:58;;;;;;;5.13;2.40;;;11.40;99.90;;;;;;5045834;28;20218;-88
2022/05/16 03:14:24;;;;;;;2.17;1.40;;;11.40;99.90;;;;;;5013742;28;20194;-88
2022/05/16 03:16:51;;;;;;;4.10;2.50;;;11.40;99.90;;;;;;5045567;28;20248;-87
2022/05/16 03:19:17;;;;;;;3.97;2.63;;;11.40;99.90;;;;;;5029569;28;20247;-88
2022/05/16 03:21:43;;;;;;;2.60;2.40;;;11.30;99.90;;;;;;5044393;28;20256;-89
2022/05/16 03:24:09;;;;;;;1.93;1.57;;;11.30;99.90;;;;;;5045264;28;20233;-88
2022/05/16 03:26:36;;;;;;;2.40;2.20;;;11.30;99.90;;;;;;5046421;28;20258;-88
2022/05/16 03:29:03;;;;;;;1.70;1.50;;;11.30;99.90;;;;;;5046127;28;20193;-87
2022/05/16 03:31:29;;;;;;;2.17;1.90;;;11.20;99.90;;;;;;5044939;28;20229;-88
2022/05/16 03:33:54;;;;;;;4.07;2.03;;;11.20;99.90;;;;;;5045025;28;20218;-86
2022/05/16 03:36:20;;;;;;;1.43;1.33;;;11.20;99.90;;;;;;5045832;28;20233;-88
2022/05/16 03:41:30;;;;;;;3.10;2.00;;;11.10;99.90;;;;;;5031164;28;20225;-87
2022/05/16 03:43:56;;;;;;;2.97;2.47;;;11.20;99.90;;;;;;5029038;28;20280;-87
2022/05/16 03:46:24;;;;;;;3.20;1.80;;;11.10;99.90;;;;;;5044859;28;20219;-87
2022/05/16 03:48:49;;;;;;;1.63;1.33;;;11.10;99.90;;;;;;5044696;28;20213;-88
2022/05/16 03:51:15;;;;;;;1.60;1.50;;;11.10;99.90;;;;;;5028478;28;20544;-87
2022/05/16 03:53:47;;;;;;;3.10;1.93;;;11.10;99.90;;;;;;5045067;28;20543;-88
2022/05/16 03:56:24;;;;;;;2.80;2.23;;;11.10;99.90;;;;;;5029450;28;20202;-87
2022/05/16 03:58:51;;;;;;;2.13;1.93;;;11.00;99.90;;;;;;5044506;28;20209;-88
2022/05/16 04:01:18;;;;;;;3.97;2.27;;;11.00;99.90;;;;;;5045243;28;20693;-88
2022/05/16 04:03:45;;;;;;;1.63;1.43;;;11.00;99.90;;;;;;5044407;28;20332;-88
2022/05/16 04:06:13;;;;;;;2.83;1.63;;;11.00;99.90;;;;;;5044322;28;20230;-86
2022/05/16 04:08:39;;;;;;;1.87;1.33;;;11.00;99.90;;;;;;5044496;28;20178;-88
2022/05/16 04:11:06;;;;;;;2.47;1.90;;;11.00;99.90;;;;;;5028501;28;20181;-88
2022/05/16 04:13:33;;;;;;;2.13;1.93;;;11.00;99.90;;;;;;5028209;28;20217;-88
2022/05/16 04:15:59;;;;;;;2.93;1.27;;;11.00;99.90;;;;;;5046108;28;20237;-88
2022/05/16 04:18:25;;;;;;;4.23;2.10;;;11.00;99.90;;;;;;5044470;28;20671;-87
2022/05/16 04:20:51;;;;;;;2.03;1.07;;;11.10;99.90;;;;;;5027399;28;20275;-86
2022/05/16 04:23:17;;;;;;;1.13;0.90;;;11.20;99.90;;;;;;5028485;28;20194;-88
2022/05/16 04:25:42;;;;;;;1.23;1.10;;;11.20;99.90;;;;;;5045081;28;20612;-88
2022/05/16 04:28:09;;;;;;;1.97;1.40;;;11.30;99.90;;;;;;5027847;28;20221;-88
2022/05/16 04:30:35;;;;;;;2.57;1.77;;;11.50;99.90;;;;;;5043495;28;20283;-88
2022/05/16 04:33:01;;;;;;;2.67;1.57;;;11.60;99.90;;;;;;5027068;28;20213;-88
2022/05/16 04:35:27;;;;;;;1.67;1.47;;;11.70;99.90;;;;;;5044015;28;20214;-85
2022/05/16 04:37:54;;;;;;;4.23;1.03;;;11.70;99.90;;;;;;5019714;28;20672;-86
2022/05/16 04:40:20;;;;;;;14.83;1.87;;;11.80;99.90;;;;;;5042141;28;20218;-86
2022/05/16 04:42:46;;;;;;;1.17;1.03;;;11.80;99.90;;;;;;5041955;28;20222;-85
2022/05/16 04:45:24;;;;;;;0.97;0.97;;;11.90;99.90;;;;;;5042048;28;20230;-87
2022/05/16 04:47:56;;;;;;;1.30;1.20;;;12.00;99.90;;;;;;5042835;28;20213;-86
2022/05/16 04:50:31;;;;;;;3.57;1.40;;;12.10;99.90;;;;;;5043220;28;20192;-86
2022/05/16 04:52:59;;;;;;;2.47;1.23;;;12.10;99.90;;;;;;5042319;28;20213;-86
2022/05/16 04:55:26;;;;;;;1.90;1.20;;;12.20;99.90;;;;;;5043397;28;20236;-87
2022/05/16 04:57:52;;;;;;;1.80;1.03;;;12.30;99.90;;;;;;5042958;28;20237;-86
2022/05/16 05:00:20;;;;;;;2.37;2.23;;;12.50;99.90;;;;;;5041805;28;20218;-87
2022/05/16 05:02:47;;;;;;;3.37;1.50;;;12.70;99.90;;;;;;5041972;28;20284;-86
2022/05/16 05:05:14;;;;;;;4.47;1.37;;;12.90;99.90;;;;;;5042969;28;20186;-87
2022/05/16 05:07:40;;;;;;;1.17;1.07;;;13.10;99.90;;;;;;5042625;28;20838;-86
2022/05/16 05:15:38;;;;;;;2.10;1.20;;;13.60;99.90;;;;;;5041996;28;20233;-86
2022/05/16 05:18:04;;;;;;;2.53;1.43;;;14.40;99.90;;;;;;5025460;28;20248;-85
2022/05/16 05:20:32;;;;;;;2.43;1.03;;;15.30;99.90;;;;;;5041728;28;20186;-86
2022/05/16 05:22:59;;;;;;;1.00;1.00;;;14.90;99.90;;;;;;5026337;28;20303;-88
2022/05/16 05:25:25;;;;;;;3.40;1.63;;;14.10;99.90;;;;;;5042816;28;20214;-86
2022/05/16 05:27:51;;;;;;;2.60;1.30;;;13.80;99.90;;;;;;5025226;28;20229;-88
2022/05/16 05:30:23;;;;;;;2.60;1.53;;;13.50;99.90;;;;;;5043062;28;20252;-87
2022/05/16 05:32:50;;;;;;;5.70;1.63;;;13.40;99.90;;;;;;5040864;28;20598;-86
2022/05/16 05:35:17;;;;;;;1.90;1.50;;;13.40;99.90;;;;;;5026309;28;20678;-87
2022/05/16 05:37:42;;;;;;;3.80;1.80;;;13.40;99.90;;;;;;5042896;28;20221;-87
2022/05/16 05:40:10;;;;;;;3.13;1.70;;;13.40;99.90;;;;;;5041340;28;21003;-86
2022/05/16 05:42:37;;;;;;;1.57;1.17;;;13.50;99.90;;;;;;5042861;28;20249;-87
2022/05/16 05:45:04;;;;;;;1.37;1.17;;;13.40;99.90;;;;;;5044534;28;20293;-87
2022/05/16 05:47:30;;;;;;;1.40;1.17;;;13.60;99.90;;;;;;5046711;28;20243;-87
2022/05/16 05:49:56;;;;;;;3.47;1.57;;;13.60;99.90;;;;;;5048597;28;20185;-88
2022/05/16 05:52:22;;;;;;;2.87;1.90;;;13.70;99.90;;;;;;5045877;28;20632;-88
2022/05/16 05:54:48;;;;;;;2.10;1.70;;;14.20;99.90;;;;;;5045575;28;20230;-88
2022/05/16 05:57:16;;;;;;;1.70;1.50;;;14.70;99.90;;;;;;5045600;28;20228;-87
2022/05/16 05:59:42;;;;;;;2.00;1.80;;;15.70;99.90;;;;;;5046319;28;20178;-86
2022/05/16 06:02:09;;;;;;;1.37;1.27;;;16.30;99.90;;;;;;5045983;28;20272;-89
2022/05/16 06:04:35;;;;;;;2.83;1.80;;;15.50;99.90;;;;;;5041997;28;20336;-87
2022/05/16 06:07:02;;;;;;;2.00;1.80;;;15.50;99.90;;;;;;5041101;28;20229;-88
2022/05/16 06:09:28;;;;;;;7.27;1.83;;;15.20;99.90;;;;;;5043868;28;20292;-85
2022/05/16 06:11:54;;;;;;;1.50;1.40;;;15.20;99.90;;;;;;5043711;28;20283;-84
2022/05/16 06:14:20;;;;;;;3.93;2.43;;;15.20;99.90;;;;;;5046679;28;20277;-89
2022/05/16 06:16:46;;;;;;;3.57;1.67;;;15.40;99.90;;;;;;5028670;28;21131;-86
2022/05/16 06:19:11;;;;;;;2.90;2.60;;;15.40;99.90;;;;;;5027762;28;20221;-86
2022/05/16 06:21:38;;;;;;;2.20;1.20;;;15.50;99.90;;;;;;5043414;28;21026;-85
2022/05/16 06:24:05;;;;;;;1.73;1.63;;;15.60;99.90;;;;;;5037896;28;20287;-87
2022/05/16 06:26:31;;;;;;;5.73;2.23;;;15.90;99.90;;;;;;5011087;28;20201;-85
2022/05/16 06:28:57;;;;;;;2.07;1.40;;;15.80;99.90;;;;;;5045116;28;20194;-84
2022/05/16 06:31:23;;;;;;;4.40;2.73;;;15.70;99.90;;;;;;5043909;28;20225;-86
2022/05/16 06:33:49;;;;;;;3.23;1.97;;;15.80;99.90;;;;;;5027233;28;20217;-86
2022/05/16 06:36:16;;;;;;;5.47;2.00;;;15.60;99.90;;;;;;5027396;28;20240;-85
2022/05/16 06:38:42;;;;;;;2.60;1.40;;;15.70;99.90;;;;;;5044311;28;20190;-85
2022/05/16 06:41:09;;;;;;;2.50;1.17;;;15.70;99.90;;;;;;5046132;28;20182;-89
2022/05/16 06:43:35;;;;;;;1.40;1.30;;;15.80;99.90;;;;;;5029149;28;20224;-88
2022/05/16 06:46:02;;;;;;;2.47;1.90;;;15.80;99.90;;;;;;5028541;28;20225;-86
2022/05/16 06:48:29;;;;;;;2.30;1.47;;;15.90;99.90;;;;;;5043764;28;20330;-87
2022/05/16 06:50:56;;;;;;;3.13;1.43;;;16.20;99.90;;;;;;5035283;28;20222;-87
2022/05/16 06:53:30;;;;;;;6.33;1.80;;;16.40;99.90;;;;;;5045443;28;20186;-86
2022/05/16 06:55:56;;;;;;;5.40;2.07;;;17.20;99.90;;;;;;5045407;28;20323;-88
2022/05/16 06:58:22;;;;;;;4.97;1.80;;;18.10;99.90;;;;;;5028697;28;20298;-86
2022/05/16 07:00:50;;;;;;;4.23;1.73;;;18.80;99.90;;;;;;5043470;28;20216;-89
2022/05/16 07:03:16;;;;;;;2.37;1.47;;;19.10;99.90;;;;;;5044662;28;20242;-87
2022/05/16 07:05:42;;;;;;;3.47;1.63;;;18.70;99.90;;;;;;5043823;28;20196;-88
2022/05/16 07:08:09;;;;;;;2.47;1.87;;;18.40;99.90;;;;;;5026478;28;20276;-87
2022/05/16 07:10:34;;;;;;;17.73;2.93;;;18.10;99.90;;;;;;5043390;28;20246;-89
2022/05/16 07:13:00;;;;;;;3.17;1.70;;;17.90;99.90;;;;;;5024949;28;20793;-88
2022/05/16 07:15:26;;;;;;;3.63;2.23;;;18.20;99.90;;;;;;5024909;28;20649;-88
2022/05/16 07:17:52;;;;;;;3.03;2.03;;;19.20;99.90;;;;;;5027342;28;20217;-88
2022/05/16 07:20:18;;;;;;;4.87;2.13;;;19.50;99.90;;;;;;5027633;28;20538;-88
2022/05/16 07:22:45;;;;;;;4.80;1.87;;;19.60;99.90;;;;;;5028132;28;20252;-88
2022/05/16 07:25:16;;;;;;;3.83;1.60;;;19.70;99.90;;;;;;5044852;28;20218;-89
2022/05/16 07:27:59;;;;;;;5.90;1.83;;;19.10;99.90;;;;;;5045062;28;20209;-87
2022/05/16 07:30:28;;;;;;;2.27;1.67;;;19.40;99.90;;;;;;5042309;28;20208;-87
2022/05/16 07:32:55;;;;;;;3.83;2.50;;;19.50;99.90;;;;;;5043140;28;20222;-88
2022/05/16 07:35:26;;;;;;;5.20;2.30;;;19.40;99.90;;;;;;5043748;28;20249;-86
2022/05/16 07:37:53;;;;;;;3.27;2.10;;;19.50;99.90;;;;;;5044803;28;20218;-87
2022/05/16 07:40:25;;;;;;;2.20;1.83;;;19.40;99.90;;;;;;5044256;28;20216;-87
2022/05/16 07:42:52;;;;;;;2.10;1.90;;;19.70;99.90;;;;;;5040669;28;20224;-86
2022/05/16 07:45:19;;;;;;;1.50;1.33;;;19.50;99.90;;;;;;5041829;28;20221;-88
2022/05/16 07:47:45;;;;;;;1.77;1.67;;;19.60;99.90;;;;;;5024184;28;20293;-88
2022/05/16 07:50:11;;;;;;;3.47;1.87;;;19.60;99.90;;;;;;5024381;28;20259;-87
2022/05/16 07:52:38;;;;;;;2.33;1.70;;;19.50;99.90;;;;;;5041970;28;20221;-89
2022/05/16 07:55:05;;;;;;;4.30;2.07;;;19.70;99.90;;;;;;5041262;28;20232;-89
2022/05/16 07:57:31;;;;;;;2.17;1.40;;;19.70;99.90;;;;;;5041053;28;20232;-88
2022/05/16 07:59:57;;;;;;;2.90;2.00;;;19.90;99.90;;;;;;5041518;28;20224;-86
2022/05/16 08:02:23;;;;;;;4.93;2.47;;;19.80;99.90;;;;;;5025078;28;20504;-87
2022/05/16 08:04:49;;;;;;;6.07;2.40;;;20.20;99.90;;;;;;5022644;28;20692;-87
2022/05/16 08:07:15;;;;;;;2.67;1.60;;;20.40;99.90;;;;;;5040727;28;20221;-87
2022/05/16 08:12:28;;;;;;;5.17;1.97;;;20.00;99.90;;;;;;5042419;28;20709;-86
2022/05/16 08:14:54;;;;;;;5.93;2.30;;;19.90;99.90;;;;;;5041184;28;20241;-86
2022/05/16 08:17:21;;;;;;;5.13;2.50;;;20.10;99.90;;;;;;5025336;28;20658;-86
2022/05/16 08:19:47;;;;;;;5.30;2.00;;;20.10;99.90;;;;;;5041917;28;20324;-86
2022/05/16 08:22:13;;;;;;;4.50;2.37;;;20.50;99.90;;;;;;5023887;28;20392;-87
2022/05/16 08:24:40;;;;;;;6.90;2.40;;;21.10;99.90;;;;;;5042246;28;20602;-87
2022/05/16 08:27:06;;;;;;;4.97;2.13;;;21.20;99.90;;;;;;5040946;28;20218;-85
2022/05/16 08:29:32;;;;;;;1.90;1.73;;;21.50;99.90;;;;;;5040472;28;20182;-86
2022/05/16 08:31:59;;;;;;;4.80;2.00;;;21.40;99.90;;;;;;5039979;28;20182;-86
2022/05/16 08:34:25;;;;;;;2.13;1.93;;;21.70;99.90;;;;;;5040132;28;20212;-85
2022/05/16 08:39:54;;;;;;;2.70;2.33;;;20.80;99.90;;;;;;5040165;28;20604;-85
2022/05/16 08:42:30;;;;;;;3.07;2.47;;;20.50;99.90;;;;;;5039498;28;20222;-85
2022/05/16 08:45:03;;;;;;;4.67;2.00;;;20.30;99.90;;;;;;5055131;28;20217;-88
2022/05/16 08:47:51;;;;;;;4.03;2.63;;;20.40;99.90;;;;;;5040930;28;20184;-85
2022/05/16 08:50:24;;;;;;;1.80;1.60;;;20.90;99.90;;;;;;5041347;28;20212;-85
2022/05/16 08:53:08;;;;;;;6.57;2.87;;;21.00;99.90;;;;;;5041837;28;20210;-87
2022/05/16 08:55:45;;;;;;;7.43;2.60;;;21.30;99.90;;;;;;5040737;28;20234;-86
2022/05/16 08:58:29;;;;;;;4.00;2.23;;;21.10;99.90;;;;;;5041605;28;20201;-87
2022/05/16 09:00:59;;;;;;;7.87;2.37;;;21.10;99.90;;;;;;5056066;28;20214;-85
2022/05/16 09:03:33;;;;;;;2.50;2.13;;;21.20;99.90;;;;;;5039675;28;20233;-88
2022/05/16 09:06:03;;;;;;;3.03;2.57;;;21.40;99.90;;;;;;5038496;28;20584;-88
2022/05/16 09:08:42;;;;;;;4.97;2.27;;;21.80;99.90;;;;;;5043522;28;20254;-88
2022/05/16 09:11:29;;;;;;;3.23;1.80;;;22.10;99.90;;;;;;5042265;28;20174;-88
2022/05/16 09:13:58;;;;;;;3.47;2.17;;;22.50;99.90;;;;;;5041858;28;20214;-87
2022/05/16 09:16:54;;;;;;;3.30;2.10;;;23.00;99.90;;;;;;5040067;28;20242;-88
2022/05/16 09:19:47;;;;;;;3.10;2.22;;;23.40;99.90;;;;;;5035494;28;20229;-86
2022/05/16 09:22:24;;;;;;;2.42;2.08;;;23.20;99.90;;;;;;5043378;28;20302;-86
2022/05/16 09:24:55;;;;;;;5.05;2.25;;;23.60;99.90;;;;;;5043650;28;20663;-86
2022/05/16 09:30:23;;;;;;;3.45;2.10;;;22.90;99.90;;;;;;5043535;28;20206;-86
2022/05/16 09:32:57;;;;;;;5.55;2.33;;;23.30;99.90;;;;;;5046522;28;20214;-85
2022/05/16 09:35:45;;;;;;;5.13;2.33;;;23.60;99.90;;;;;;5043699;28;21057;-84
2022/05/16 09:38:11;;;;;;;2.30;2.10;;;23.80;99.90;;;;;;5043984;28;20263;-84
2022/05/16 09:40:40;;;;;;;4.88;2.47;;;23.70;99.90;;;;;;5042026;28;20597;-85
2022/05/16 09:43:14;;;;;;;4.82;2.90;;;23.50;99.90;;;;;;5043569;28;20226;-85
2022/05/16 09:45:45;;;;;;;4.85;2.78;;;23.60;99.90;;;;;;5059024;28;20222;-86
2022/05/16 09:48:18;;;;;;;5.82;2.25;;;23.20;99.90;;;;;;5042693;28;20214;-86
2022/05/16 09:50:59;;;;;;;4.47;2.95;;;23.20;99.90;;;;;;5044873;28;20193;-85
2022/05/16 09:53:36;;;;;;;2.67;2.10;;;23.00;99.90;;;;;;5044231;28;20186;-85
2022/05/16 09:56:22;;;;;;;5.43;2.00;;;22.80;99.90;;;;;;5042368;28;21058;-86
2022/05/16 09:58:55;;;;;;;3.40;2.40;;;22.40;99.90;;;;;;5035086;28;20219;-85
2022/05/16 10:01:41;;;;;;;5.28;2.50;;;22.60;99.90;;;;;;5043710;28;20214;-85
2022/05/16 10:04:15;;;;;;;2.35;2.15;;;22.80;99.90;;;;;;5040483;28;20357;-85
2022/05/16 10:06:55;;;;;;;5.13;2.40;;;23.50;99.90;;;;;;5042489;28;20341;-85
2022/05/16 10:09:46;;;;;;;3.17;2.67;;;23.70;99.90;;;;;;5043147;28;20224;-84
2022/05/16 10:12:16;;;;;;;2.85;2.33;;;23.50;99.90;;;;;;5041320;28;20213;-84
2022/05/16 10:14:42;;;;;;;6.80;3.05;;;23.60;99.90;;;;;;5042341;28;20632;-86
2022/05/16 10:17:12;;;;;;;3.03;2.67;;;23.70;99.90;;;;;;5042499;28;20275;-85
2022/05/16 10:19:40;;;;;;;5.07;3.25;;;23.60;99.90;;;;;;5044280;28;20214;-84
2022/05/16 10:22:12;;;;;;;2.67;2.47;;;23.10;99.90;;;;;;5043372;28;20256;-87
2022/05/16 10:24:50;;;;;;;3.83;2.35;;;22.80;99.90;;;;;;5042650;28;20212;-88
2022/05/16 10:27:24;;;;;;;4.97;2.40;;;22.80;99.90;;;;;;5045972;28;20218;-86
2022/05/16 10:29:53;;;;;;;7.65;2.50;;;22.70;99.90;;;;;;5044712;28;20210;-86
2022/05/16 10:35:26;;;;;;;4.88;2.58;;;22.20;99.90;;;;;;5044282;28;20264;-86
2022/05/16 10:37:56;;;;;;;6.07;2.40;;;22.10;99.90;;;;;;5059390;28;20267;-86
2022/05/16 10:40:29;;;;;;;5.55;3.17;;;22.30;99.90;;;;;;5043856;28;20222;-89
2022/05/16 10:43:13;;;;;;;6.68;2.75;;;22.40;99.90;;;;;;5044885;28;20549;-87
2022/05/16 10:45:46;;;;;;;2.67;2.03;;;22.40;99.90;;;;;;5046269;28;20232;-89
2022/05/16 10:48:18;;;;;;;4.55;3.15;;;22.50;99.90;;;;;;5063266;28;20229;-90
2022/05/16 10:50:52;;;;;;;3.90;2.42;;;22.50;99.90;;;;;;5045294;28;20635;-86
2022/05/16 10:53:25;;;;;;;6.82;3.03;;;22.60;99.90;;;;;;5063465;28;20169;-87
2022/05/16 10:56:30;;;;;;;5.38;2.35;;;22.70;99.90;;;;;;5047899;28;20230;-90
2022/05/16 10:59:07;;;;;;;3.30;2.28;;;23.00;99.90;;;;;;5046045;28;20218;-88
2022/05/16 11:01:56;;;;;;;5.45;2.50;;;23.00;99.90;;;;;;5061597;28;20303;-86
2022/05/16 11:04:34;;;;;;;3.47;2.85;;;23.20;99.90;;;;;;5046401;28;20253;-87
2022/05/16 11:07:23;;;;;;;4.22;2.30;;;23.30;99.90;;;;;;5061008;28;20296;-86
2022/05/16 11:10:08;;;;;;;3.67;2.70;;;23.40;99.90;;;;;;5032639;28;20221;-87
2022/05/16 11:12:44;;;;;;;3.95;2.50;;;23.50;99.90;;;;;;5045210;28;20228;-87
2022/05/16 11:15:20;;;;;;;4.53;3.13;;;23.60;99.90;;;;;;5046427;28;20217;-88
2022/05/16 11:18:09;;;;;;;6.38;2.90;;;23.60;99.90;;;;;;5045089;28;20196;-87
2022/05/16 11:20:46;;;;;;;6.25;3.22;;;23.40;99.90;;;;;;5044099;28;20174;-87
2022/05/16 11:23:20;;;;;;;6.60;2.53;;;23.40;99.90;;;;;;5045036;28;20197;-88
2022/05/16 11:26:01;;;;;;;4.10;2.72;;;23.60;99.90;;;;;;5043974;28;20228;-90
2022/05/16 11:29:16;;;;;;;7.50;3.20;;;23.60;99.90;;;;;;5045092;28;20267;-88
2022/05/16 11:31:31;;;;;;;5.28;2.95;;;23.60;99.90;;;;;;5045634;28;20309;-88
2022/05/16 11:33:57;;;;;;;5.00;2.90;;;23.90;99.90;;;;;;5045779;28;20225;-87
2022/05/16 11:36:49;;;;;;;5.15;2.90;;;24.30;99.90;;;;;;5028251;28;20336;-87
2022/05/16 11:39:23;;;;;;;6.85;3.08;;;24.40;99.90;;;;;;5044546;28;20225;-88
2022/05/16 11:42:08;;;;;;;6.22;3.50;;;24.60;99.90;;;;;;5045589;28;20213;-88
2022/05/16 11:44:42;;;;;;;6.68;3.30;;;25.10;99.90;;;;;;5043822;28;20204;-86
2022/05/16 11:47:23;;;;;;;3.35;3.03;;;24.70;99.90;;;;;;5045165;28;20280;-87
2022/05/16 11:50:23;;;;;;;3.55;2.60;;;24.30;99.90;;;;;;5044310;28;20209;-88
2022/05/16 11:53:11;;;;;;;4.82;3.38;;;24.30;99.90;;;;;;5045667;28;20242;-87
2022/05/16 12:01:32;;;;;;;5.28;3.90;;;24.30;99.90;;;;;;5045652;28;20237;-88
2022/05/16 12:04:13;;;;;;;6.18;3.38;;;24.70;99.90;;;;;;5043656;28;20221;-87
2022/05/16 12:07:02;;;;;;;6.72;4.00;;;24.80;99.90;;;;;;5059788;28;20678;-86
2022/05/16 12:09:32;;;;;;;8.10;3.90;;;24.90;99.90;;;;;;5044333;28;20570;-86
2022/05/16 12:12:02;;;;;;;5.43;3.85;;;24.50;99.90;;;;;;5044166;28;20245;-90
2022/05/16 12:14:34;;;;;;;4.68;4.07;;;24.50;99.90;;;;;;5046151;28;20505;-88
2022/05/16 12:17:27;;;;;;;4.22;3.65;;;24.20;99.90;;;;;;5043949;28;20210;-87
2022/05/16 12:19:53;;;;;;;7.35;4.75;;;24.40;99.90;;;;;;5044405;28;20214;-87
2022/05/16 12:22:32;;;;;;;9.70;4.65;;;24.90;99.90;;;;;;5042724;28;20271;-87
2022/05/16 12:25:08;;;;;;;7.18;5.05;;;24.90;99.90;;;;;;5043942;28;20249;-86
2022/05/16 12:27:45;;;;;;;5.70;4.15;;;24.50;99.90;;;;;;5044277;28;20983;-90
2022/05/16 12:30:33;;;;;;;7.53;3.67;;;24.50;99.90;;;;;;5043720;28;20805;-87
2022/05/16 12:33:00;;;;;;;4.80;4.20;;;24.70;99.90;;;;;;5044745;28;20217;-89
2022/05/16 12:35:38;;;;;;;6.57;4.57;;;25.00;99.90;;;;;;5011744;28;20645;-85
2022/05/16 12:38:05;;;;;;;11.85;4.88;;;25.40;99.90;;;;;;5043984;28;20205;-87
2022/05/16 12:41:08;;;;;;;7.38;4.88;;;25.50;99.90;;;;;;5043346;28;20228;-89
2022/05/16 12:43:57;;;;;;;10.15;5.90;;;26.00;99.90;;;;;;5043351;28;20225;-87
2022/05/16 12:46:32;;;;;;;8.10;5.90;;;25.90;99.90;;;;;;5045356;28;20218;-86
2022/05/16 12:49:17;;;;;;;6.30;5.45;;;25.90;99.90;;;;;;5042308;28;20308;-88
2022/05/16 12:51:59;;;;;;;7.70;5.93;;;25.90;99.90;;;;;;5043323;28;20230;-87
2022/05/16 12:54:44;;;;;;;7.15;5.38;;;25.80;99.90;;;;;;5045508;28;20225;-87
2022/05/16 12:57:43;;;;;;;7.72;5.05;;;25.70;99.90;;;;;;5046342;28;20229;-88
2022/05/16 13:00:16;;;;;;;12.93;5.88;;;26.10;99.90;;;;;;5047792;28;20568;-89
2022/05/16 13:03:06;;;;;;;9.88;6.55;;;26.20;99.90;;;;;;5040751;28;20186;-88
2022/05/16 13:05:54;;;;;;;13.02;6.25;;;26.00;99.90;;;;;;5047363;28;20190;-86
2022/05/16 13:08:26;;;;;;;10.45;7.32;;;25.90;99.90;;;;;;5047949;28;20301;-86
2022/05/16 13:11:00;;;;;;;14.35;7.20;;;24.90;99.90;;;;;;5047675;28;20225;-89
2022/05/16 13:13:38;;;;;;;13.73;7.70;;;24.70;99.90;;;;;;5048135;28;20225;-89
2022/05/16 13:16:22;;;;;;;10.25;7.97;;;24.70;99.90;;;;;;5063677;28;20324;-90
2022/05/16 13:18:56;;;;;;;10.80;6.78;;;24.60;99.90;;;;;;5046271;28;20226;-85
2022/05/16 13:21:22;;;;;;;9.20;7.13;;;24.60;99.90;;;;;;5063305;28;21263;-86
2022/05/16 13:23:50;;;;;;;13.07;5.57;;;25.40;99.90;;;;;;5029786;28;20221;-89
2022/05/16 13:31:54;;;;;;;8.35;4.07;;;25.30;99.90;;;;;;5048232;28;20205;-87
2022/05/16 13:34:35;;;;;;;7.32;3.33;;;24.90;99.90;;;;;;5048348;28;20537;-90
2022/05/16 13:37:06;;;;;;;2.92;2.60;;;24.60;99.90;;;;;;5046655;28;20249;-90
2022/05/16 13:39:59;;;;;;;4.00;2.78;;;24.50;99.90;;;;;;5031150;28;20728;-86
2022/05/16 13:42:27;;;;;;;2.97;2.63;;;24.60;99.90;;;;;;5048006;28;20305;-87